メインページ
METAR-TAF:

METAR-TAF

空港 :

ナンプラ, モザンビーク

緯度: 15-06S, 経度: 039-17E, 海抜: 438m

現時点の気象観測

当レポートは15分前の12:00(UTC)に作成
の風 8kt、南東から南西の間で変化する
気温 29°C
湿度 35%
気圧 1017 hPa
視程10km以上
高度2000ftの雲は散在している

METAR: FQNP 251200Z 19008KT 140V230 9999 SCT020 29/12 Q1017

時間: 14:15 (12:15 UTC)

予報

当レポートは2時間15分前の10:00(UTC)に作成
予報は25日の 12時(UTC)から 26日の 12時(UTC)まで有効
の風 10kt
視程10km以上
高度2000ftの千切れ雲あり

TAF: FQNP 251000Z 2512/2612 17010KT 9999 BKN020 TX27/2513Z TN16/2602Z

4,000以上の空港の気象観測と天気予報(METAR報とTAF報)

利用可能な観測所は地図上に黄色い丸と赤い丸で示す。

丸の上にカーソルを重ねると観測所名を参照できる。

次にクリックすると気象観測と天気予報を参照できる。

マップの切り替え:黒色「×」印の緑ボタンをクリックして拡大、「-」印の緑ボタンをクリックして縮小、緑色の三角印をクリックして隣りの地図に切り替え


METAR-TAF: